createdAt,value
2019-02-07T00:00:43.267Z,0.00
2019-02-07T00:01:43.226Z,0.00
2019-02-07T00:02:43.207Z,0.00
2019-02-07T00:03:43.183Z,0.00
2019-02-07T00:04:43.163Z,0.00
2019-02-07T00:05:43.162Z,0.00
2019-02-07T00:06:43.147Z,0.00
2019-02-07T00:07:43.104Z,0.00
2019-02-07T00:08:43.078Z,0.00
2019-02-07T00:09:43.069Z,0.00
2019-02-07T00:10:43.635Z,0.00
2019-02-07T00:11:43.017Z,0.00
2019-02-07T00:12:43.010Z,0.00
2019-02-07T00:13:42.971Z,0.00
2019-02-07T00:14:42.953Z,0.00
2019-02-07T00:15:42.932Z,0.00
2019-02-07T00:16:42.928Z,0.00
2019-02-07T00:17:42.889Z,0.00
2019-02-07T00:18:42.865Z,0.00
2019-02-07T00:19:42.856Z,0.00
2019-02-07T00:20:42.825Z,0.00
2019-02-07T00:21:42.828Z,0.00
2019-02-07T00:22:42.799Z,0.00
2019-02-07T00:23:42.764Z,0.00
2019-02-07T00:24:43.333Z,0.00
2019-02-07T00:25:42.721Z,0.00
2019-02-07T00:26:42.698Z,0.00
2019-02-07T00:27:42.700Z,0.00
2019-02-07T00:28:42.658Z,0.00
2019-02-07T00:29:42.635Z,0.00
2019-02-07T00:30:42.617Z,0.00
2019-02-07T00:31:42.591Z,0.00
2019-02-07T00:32:42.575Z,0.00
2019-02-07T00:33:42.565Z,0.00
2019-02-07T00:34:42.531Z,0.00
2019-02-07T00:35:42.680Z,0.00
2019-02-07T00:36:42.488Z,0.00
2019-02-07T00:37:42.467Z,0.00
2019-02-07T00:38:42.540Z,0.00
2019-02-07T00:39:42.433Z,0.00
2019-02-07T00:40:42.402Z,0.00
2019-02-07T00:41:42.507Z,0.00
2019-02-07T00:42:42.359Z,0.00
2019-02-07T00:43:42.336Z,0.00
2019-02-07T00:44:50.430Z,0.00
2019-02-07T00:45:42.294Z,0.00
2019-02-07T00:46:42.275Z,0.00
2019-02-07T00:47:42.254Z,0.00
2019-02-07T00:48:42.230Z,0.00
2019-02-07T00:49:42.207Z,0.00
2019-02-07T00:50:42.247Z,0.00
2019-02-07T00:51:42.173Z,0.00
2019-02-07T00:52:42.141Z,0.00
2019-02-07T00:53:42.128Z,0.00
2019-02-07T00:54:42.101Z,0.00
2019-02-07T00:55:42.090Z,0.00
2019-02-07T00:56:42.057Z,0.00
2019-02-07T00:57:42.056Z,0.00
2019-02-07T00:58:42.019Z,0.00
2019-02-07T00:59:41.996Z,0.00
2019-02-07T01:00:41.985Z,0.00
2019-02-07T01:01:41.950Z,0.00
2019-02-07T01:02:41.939Z,0.00
2019-02-07T01:03:41.902Z,0.00
2019-02-07T01:04:41.885Z,0.00
2019-02-07T01:05:41.897Z,0.00
2019-02-07T01:06:41.860Z,0.00
2019-02-07T01:07:41.815Z,0.00
2019-02-07T01:08:41.805Z,0.00
2019-02-07T01:09:41.773Z,0.00
2019-02-07T01:10:41.757Z,0.00
2019-02-07T01:11:41.737Z,0.00
2019-02-07T01:12:41.725Z,0.00
2019-02-07T01:13:41.698Z,0.00
2019-02-07T01:14:42.176Z,0.00
2019-02-07T01:15:41.644Z,0.00
2019-02-07T01:16:41.629Z,0.00
2019-02-07T01:17:41.600Z,0.00
2019-02-07T01:18:41.585Z,0.00
2019-02-07T01:19:41.575Z,0.00
2019-02-07T01:20:41.536Z,0.00
2019-02-07T01:21:41.514Z,0.00
2019-02-07T01:22:41.495Z,0.00
2019-02-07T01:23:41.466Z,0.00
2019-02-07T01:24:41.448Z,0.00
2019-02-07T01:25:41.442Z,0.00
2019-02-07T01:26:41.404Z,0.00
2019-02-07T01:27:41.379Z,0.00
2019-02-07T01:28:41.358Z,0.00
2019-02-07T01:29:41.335Z,0.00
2019-02-07T01:30:43.132Z,0.00
2019-02-07T01:31:42.165Z,0.00
2019-02-07T01:32:41.268Z,0.00
2019-02-07T01:33:41.252Z,0.00
2019-02-07T01:34:41.226Z,0.00
2019-02-07T01:35:41.205Z,0.00
2019-02-07T01:36:41.201Z,0.00
2019-02-07T01:37:41.160Z,0.00
2019-02-07T01:38:41.141Z,0.00
2019-02-07T01:41:23.122Z,0.00
2019-02-07T01:42:23.079Z,0.00
2019-02-07T01:43:23.058Z,0.00
2019-02-07T01:44:23.034Z,0.00
2019-02-07T01:45:23.640Z,0.00
2019-02-07T01:46:23.008Z,0.00
2019-02-07T01:47:22.969Z,0.00
2019-02-07T01:48:22.947Z,0.00
2019-02-07T01:49:22.926Z,0.00
2019-02-07T01:50:22.901Z,0.00
2019-02-07T01:51:22.901Z,0.00
2019-02-07T01:52:22.876Z,0.00
2019-02-07T01:53:22.853Z,0.00
2019-02-07T01:54:22.858Z,0.00
2019-02-07T01:55:22.795Z,0.00
2019-02-07T01:56:22.815Z,0.00
2019-02-07T01:57:22.749Z,0.00
2019-02-07T01:58:22.756Z,0.00
2019-02-07T01:59:22.706Z,0.00
2019-02-07T02:00:22.685Z,0.00
2019-02-07T02:01:22.663Z,0.00
2019-02-07T02:02:22.639Z,0.00
2019-02-07T02:03:23.136Z,0.00
2019-02-07T02:04:22.611Z,0.00
2019-02-07T02:05:22.578Z,0.00
2019-02-07T02:06:22.555Z,0.00
2019-02-07T02:07:22.530Z,0.00
2019-02-07T02:08:22.512Z,0.00
2019-02-07T02:09:22.504Z,0.00
2019-02-07T02:10:22.475Z,0.00
2019-02-07T02:11:22.440Z,0.00
2019-02-07T02:12:22.419Z,0.00
2019-02-07T02:13:22.402Z,0.00
2019-02-07T02:14:22.378Z,0.00
2019-02-07T02:15:24.971Z,0.00
2019-02-07T02:16:24.120Z,0.00
2019-02-07T02:17:22.313Z,0.00
2019-02-07T02:18:22.290Z,0.00
2019-02-07T02:19:22.275Z,0.00
2019-02-07T02:20:22.249Z,0.00
2019-02-07T02:21:22.234Z,0.00
2019-02-07T02:22:22.202Z,0.00
2019-02-07T02:23:22.180Z,0.00
2019-02-07T02:24:22.164Z,0.00
2019-02-07T02:25:22.137Z,0.00
2019-02-07T02:26:22.138Z,0.00
2019-02-07T02:27:22.088Z,0.00
2019-02-07T02:28:22.070Z,0.00
2019-02-07T02:29:22.044Z,0.00
2019-02-07T02:30:22.021Z,0.00
2019-02-07T02:31:22.004Z,0.00
2019-02-07T02:32:22.001Z,0.00
2019-02-07T02:33:21.963Z,0.00
2019-02-07T02:34:21.932Z,0.00
2019-02-07T02:35:21.914Z,0.00
2019-02-07T02:36:21.909Z,0.00
2019-02-07T02:37:21.914Z,0.00
2019-02-07T02:38:21.844Z,0.00
2019-02-07T02:39:21.825Z,0.00
2019-02-07T02:40:21.802Z,0.00
2019-02-07T02:41:21.782Z,0.00
2019-02-07T02:42:21.760Z,0.00
2019-02-07T02:43:21.751Z,0.00
2019-02-07T02:44:21.713Z,0.00
2019-02-07T02:45:21.697Z,0.00
2019-02-07T02:46:21.680Z,0.00
2019-02-07T02:47:21.652Z,0.00
2019-02-07T02:48:21.644Z,0.00
2019-02-07T02:49:21.602Z,0.00
2019-02-07T02:50:21.584Z,0.00
2019-02-07T02:51:21.561Z,0.00
2019-02-07T02:52:21.537Z,0.00
2019-02-07T02:53:21.513Z,0.00
2019-02-07T02:54:21.512Z,0.00
2019-02-07T02:55:21.468Z,0.00
2019-02-07T02:56:21.454Z,0.00
2019-02-07T02:57:21.424Z,0.00
2019-02-07T03:00:03.632Z,0.00
2019-02-07T03:01:03.593Z,0.00
2019-02-07T03:02:03.649Z,0.00
2019-02-07T03:03:03.542Z,0.00
2019-02-07T03:04:03.521Z,0.00
2019-02-07T03:05:03.495Z,0.00
2019-02-07T03:06:03.507Z,0.00
2019-02-07T03:07:03.454Z,0.00
2019-02-07T03:08:03.437Z,0.00
2019-02-07T03:09:03.411Z,0.00
2019-02-07T03:10:03.385Z,0.00
2019-02-07T03:11:03.364Z,0.00
2019-02-07T03:12:03.353Z,0.00
2019-02-07T03:13:03.367Z,0.00
2019-02-07T03:14:03.314Z,0.00
2019-02-07T03:15:03.275Z,0.00
2019-02-07T03:16:03.256Z,0.00
2019-02-07T03:17:03.253Z,0.00
2019-02-07T03:18:03.210Z,0.00
2019-02-07T03:19:03.187Z,0.00
2019-02-07T03:20:03.167Z,0.00
2019-02-07T03:21:03.143Z,0.00
2019-02-07T03:22:03.256Z,0.00
2019-02-07T03:23:03.095Z,0.00
2019-02-07T03:24:03.077Z,0.00
2019-02-07T03:25:03.051Z,0.00
2019-02-07T03:26:03.030Z,0.00
2019-02-07T03:27:03.030Z,0.00
2019-02-07T03:28:02.985Z,0.00
2019-02-07T03:29:02.976Z,0.00
2019-02-07T03:30:02.951Z,0.00
2019-02-07T03:31:02.922Z,0.00
2019-02-07T03:32:02.894Z,0.00
2019-02-07T03:33:02.905Z,0.00
2019-02-07T03:34:02.854Z,0.00
2019-02-07T03:35:02.831Z,0.00
2019-02-07T03:36:02.808Z,0.00
2019-02-07T03:37:02.786Z,0.00
2019-02-07T03:38:02.770Z,0.00
2019-02-07T03:39:02.757Z,0.00
2019-02-07T03:40:02.720Z,0.00
2019-02-07T03:41:02.695Z,0.00
2019-02-07T03:42:02.676Z,0.00
2019-02-07T03:43:02.654Z,0.00
2019-02-07T03:44:02.644Z,0.00
2019-02-07T03:45:02.609Z,0.00
2019-02-07T03:46:03.241Z,0.00
2019-02-07T03:47:02.563Z,0.00
2019-02-07T03:48:02.545Z,0.00
2019-02-07T03:49:02.551Z,0.00
2019-02-07T03:50:02.497Z,0.00
2019-02-07T03:51:02.477Z,0.00
2019-02-07T03:52:02.457Z,0.00
2019-02-07T03:53:02.436Z,0.00
2019-02-07T03:54:02.421Z,0.00
2019-02-07T03:55:02.410Z,0.00
2019-02-07T03:56:02.386Z,0.00
2019-02-07T03:57:02.342Z,0.00
2019-02-07T03:58:02.323Z,0.00
2019-02-07T03:59:02.300Z,0.00
2019-02-07T04:00:02.281Z,0.00
2019-02-07T04:01:02.250Z,0.00
2019-02-07T04:02:02.250Z,0.00
2019-02-07T04:03:02.210Z,0.00
2019-02-07T04:04:02.184Z,0.00
2019-02-07T04:05:02.178Z,0.00
2019-02-07T04:06:02.138Z,0.00
2019-02-07T04:07:02.120Z,0.00
2019-02-07T04:08:02.115Z,0.00
2019-02-07T04:09:02.076Z,0.00
2019-02-07T04:10:02.057Z,0.00
2019-02-07T04:11:02.031Z,0.00
2019-02-07T04:12:02.025Z,0.00
2019-02-07T04:13:01.987Z,0.00
2019-02-07T04:14:01.973Z,0.00
2019-02-07T04:15:01.964Z,0.00
2019-02-07T04:16:01.918Z,0.00
2019-02-07T04:17:01.900Z,0.00
2019-02-07T04:18:01.897Z,0.00
2019-02-07T04:19:01.856Z,0.00
2019-02-07T04:20:01.997Z,0.00
2019-02-07T04:21:01.824Z,0.00
2019-02-07T04:22:01.786Z,0.00
2019-02-07T04:23:01.771Z,0.00
2019-02-07T04:24:01.752Z,0.00
2019-02-07T04:25:01.727Z,0.00
2019-02-07T04:26:01.721Z,0.00
2019-02-07T04:27:01.688Z,0.00
2019-02-07T04:28:01.676Z,0.00
2019-02-07T04:29:01.637Z,0.00
2019-02-07T04:30:01.615Z,0.00
2019-02-07T04:31:01.591Z,0.00
2019-02-07T04:32:01.566Z,0.00
2019-02-07T04:33:01.572Z,0.00
2019-02-07T04:34:01.550Z,0.00
2019-02-07T04:35:01.500Z,0.00
2019-02-07T04:36:01.482Z,0.00
2019-02-07T04:37:01.461Z,0.00
2019-02-07T04:38:02.192Z,0.00
2019-02-07T04:39:01.413Z,0.00
2019-02-07T04:40:01.419Z,0.00
2019-02-07T04:41:01.371Z,0.00
2019-02-07T04:42:01.360Z,0.00
2019-02-07T04:43:01.350Z,0.00
2019-02-07T04:44:01.306Z,0.00
2019-02-07T04:45:01.288Z,0.00
2019-02-07T04:46:01.278Z,0.00
2019-02-07T04:47:01.240Z,0.00
2019-02-07T04:48:01.219Z,0.00
2019-02-07T04:49:01.201Z,0.00
2019-02-07T04:50:01.201Z,0.00
2019-02-07T04:51:01.153Z,0.00
2019-02-07T04:52:01.141Z,0.00
2019-02-07T04:53:01.108Z,0.00
2019-02-07T04:54:01.088Z,0.00
2019-02-07T04:55:01.079Z,0.00
2019-02-07T04:56:01.038Z,0.00
2019-02-07T04:57:01.040Z,0.00
2019-02-07T04:58:00.997Z,0.00
2019-02-07T04:59:00.983Z,0.00
2019-02-07T05:00:01.040Z,0.00
2019-02-07T05:01:00.944Z,0.00
2019-02-07T05:02:00.940Z,0.00
2019-02-07T05:03:00.888Z,0.00
2019-02-07T05:04:00.870Z,0.00
2019-02-07T05:05:00.847Z,0.00
2019-02-07T05:06:00.823Z,0.00
2019-02-07T05:07:00.799Z,0.00
2019-02-07T05:08:00.813Z,0.00
2019-02-07T05:09:00.765Z,0.00
2019-02-07T05:10:00.739Z,0.00
2019-02-07T05:11:00.717Z,0.00
2019-02-07T05:12:00.695Z,0.00
2019-02-07T05:13:00.666Z,0.00
2019-02-07T05:14:00.665Z,0.00
2019-02-07T05:15:00.625Z,0.00
2019-02-07T05:16:00.616Z,0.00
2019-02-07T05:17:00.586Z,0.00
2019-02-07T05:18:00.580Z,0.00
2019-02-07T05:19:00.587Z,0.00
2019-02-07T05:20:00.524Z,0.00
2019-02-07T05:21:00.498Z,0.00
2019-02-07T05:22:00.475Z,0.00
2019-02-07T05:23:00.453Z,0.00
2019-02-07T05:24:00.434Z,0.00
2019-02-07T05:25:00.428Z,0.00
2019-02-07T05:26:00.388Z,0.00
2019-02-07T05:27:00.370Z,0.00
2019-02-07T05:28:00.344Z,0.00
2019-02-07T05:29:00.318Z,0.00
2019-02-07T05:30:00.326Z,0.00
2019-02-07T05:31:00.286Z,0.00
2019-02-07T05:32:00.260Z,0.00
2019-02-07T05:33:00.236Z,0.00
2019-02-07T05:34:00.234Z,0.00
2019-02-07T05:35:00.514Z,0.00
2019-02-07T05:36:00.181Z,0.00
2019-02-07T05:37:00.157Z,0.00
2019-02-07T05:38:00.130Z,0.00
2019-02-07T05:39:00.106Z,0.00
2019-02-07T05:40:00.392Z,0.00
2019-02-07T05:41:00.066Z,0.00
2019-02-07T05:42:00.041Z,0.00
2019-02-07T05:43:00.016Z,0.00
2019-02-07T05:43:59.999Z,0.00
2019-02-07T05:45:00.015Z,0.00
2019-02-07T05:45:59.953Z,0.00
2019-02-07T05:46:59.933Z,0.00
2019-02-07T05:47:59.907Z,0.00
2019-02-07T05:48:59.887Z,0.00
2019-02-07T05:49:59.892Z,0.00
2019-02-07T05:50:59.854Z,0.00
2019-02-07T05:51:59.830Z,0.00
2019-02-07T05:52:59.832Z,0.00
2019-02-07T05:53:59.782Z,0.00
2019-02-07T05:54:59.762Z,0.00
2019-02-07T05:55:59.735Z,0.00
2019-02-07T05:56:59.729Z,0.00
2019-02-07T05:58:00.664Z,0.00
2019-02-07T05:58:59.702Z,0.00
2019-02-07T05:59:59.644Z,0.00
2019-02-07T06:00:59.626Z,0.00
2019-02-07T06:01:59.599Z,0.00
2019-02-07T06:03:00.166Z,0.00
2019-02-07T06:03:59.562Z,0.00
2019-02-07T06:04:59.573Z,0.00
2019-02-07T06:05:59.526Z,0.00
2019-02-07T06:06:59.494Z,0.00
2019-02-07T06:07:59.473Z,0.00
2019-02-07T06:08:59.458Z,0.00
2019-02-07T06:09:59.451Z,0.00
2019-02-07T06:10:59.409Z,0.00
2019-02-07T06:11:59.385Z,0.00
2019-02-07T06:12:59.364Z,0.00
2019-02-07T06:13:59.416Z,0.00
2019-02-07T06:14:59.328Z,0.00
2019-02-07T06:15:59.317Z,0.00
2019-02-07T06:17:02.682Z,0.00
2019-02-07T06:17:59.259Z,0.00
2019-02-07T06:18:59.234Z,0.00
2019-02-07T06:19:59.217Z,0.00
2019-02-07T06:20:59.196Z,0.00
2019-02-07T06:21:59.178Z,0.00
2019-02-07T06:22:59.170Z,0.00
2019-02-07T06:23:59.134Z,0.00
2019-02-07T06:24:59.105Z,0.00
2019-02-07T06:25:59.106Z,0.00
2019-02-07T06:26:59.082Z,0.00
2019-02-07T06:27:59.041Z,0.00
2019-02-07T06:28:59.015Z,0.00
2019-02-07T06:29:59.005Z,0.00
2019-02-07T06:30:58.971Z,0.00
2019-02-07T06:31:58.985Z,0.00
2019-02-07T06:32:58.937Z,0.00
2019-02-07T06:33:58.915Z,0.00
2019-02-07T06:34:58.890Z,0.00
2019-02-07T06:35:58.868Z,0.00
2019-02-07T06:36:58.878Z,0.00
2019-02-07T06:37:58.828Z,0.00
2019-02-07T06:38:58.802Z,0.00
2019-02-07T06:39:58.781Z,4.00
2019-02-07T06:40:58.757Z,4.00
2019-02-07T06:41:58.736Z,0.00
2019-02-07T06:42:58.735Z,4.00
2019-02-07T06:43:58.697Z,4.00
2019-02-07T06:44:58.674Z,4.00
2019-02-07T06:45:58.653Z,8.00
2019-02-07T06:46:58.630Z,8.00
2019-02-07T06:47:58.626Z,8.00
2019-02-07T06:48:58.589Z,8.00
2019-02-07T06:49:58.568Z,8.00
2019-02-07T06:50:58.547Z,12.00
2019-02-07T06:51:58.546Z,16.00
2019-02-07T06:52:58.504Z,16.00
2019-02-07T06:53:58.477Z,16.00
2019-02-07T06:54:58.480Z,20.00
2019-02-07T06:55:58.438Z,16.00
2019-02-07T06:56:58.417Z,20.00
2019-02-07T06:57:58.408Z,24.00
2019-02-07T06:58:58.398Z,24.00
2019-02-07T06:59:58.361Z,20.00
2019-02-07T07:00:58.329Z,20.00
2019-02-07T07:01:58.308Z,20.00
2019-02-07T07:02:58.295Z,24.00
2019-02-07T07:03:58.287Z,32.00
2019-02-07T07:04:58.244Z,32.00
2019-02-07T07:05:58.226Z,40.00
2019-02-07T07:06:58.201Z,44.00
2019-02-07T07:07:58.182Z,56.00
2019-02-07T07:08:58.158Z,68.00
2019-02-07T07:09:58.153Z,68.00
2019-02-07T07:10:58.123Z,64.00
2019-02-07T07:11:58.095Z,100.00
2019-02-07T07:12:58.072Z,120.00
2019-02-07T07:13:58.053Z,120.00
2019-02-07T07:14:58.049Z,124.00
2019-02-07T07:15:58.011Z,128.00
2019-02-07T07:16:57.990Z,140.00
2019-02-07T07:17:57.969Z,144.00
2019-02-07T07:18:57.947Z,144.00
2019-02-07T07:19:57.942Z,156.00
2019-02-07T07:20:59.533Z,176.00
2019-02-07T07:21:57.879Z,196.00
2019-02-07T07:22:57.860Z,196.00
2019-02-07T07:23:57.834Z,216.00
2019-02-07T07:24:57.818Z,216.00
2019-02-07T07:25:57.812Z,164.00
2019-02-07T07:26:57.787Z,160.00
2019-02-07T07:27:57.753Z,176.00
2019-02-07T07:28:57.732Z,252.00
2019-02-07T07:29:57.723Z,260.00
2019-02-07T07:30:57.690Z,280.00
2019-02-07T07:31:57.685Z,276.00
2019-02-07T07:32:57.643Z,340.00
2019-02-07T07:33:57.627Z,408.00
2019-02-07T07:34:57.605Z,336.00
2019-02-07T07:35:58.247Z,280.00
2019-02-07T07:36:57.573Z,312.00
2019-02-07T07:37:57.543Z,388.00
2019-02-07T07:38:57.519Z,412.00
2019-02-07T07:39:57.501Z,388.00
2019-02-07T07:40:57.472Z,352.00
2019-02-07T07:41:57.473Z,396.00
2019-02-07T07:42:57.431Z,420.00
2019-02-07T07:43:57.417Z,304.00
2019-02-07T07:44:57.388Z,312.00
2019-02-07T07:45:57.371Z,352.00
2019-02-07T07:46:57.350Z,376.00
2019-02-07T07:47:57.341Z,460.00
2019-02-07T07:48:57.303Z,604.00
2019-02-07T07:49:57.284Z,696.00
2019-02-07T07:50:57.261Z,760.00
2019-02-07T07:51:57.260Z,856.00
2019-02-07T07:52:57.221Z,836.00
2019-02-07T07:53:57.198Z,780.00
2019-02-07T07:54:57.177Z,808.00
2019-02-07T07:55:57.156Z,724.00
2019-02-07T07:56:57.136Z,684.00
2019-02-07T07:57:57.134Z,544.00
2019-02-07T07:58:57.092Z,432.00
2019-02-07T07:59:57.076Z,320.00
2019-02-07T08:00:57.057Z,320.00
2019-02-07T08:01:57.031Z,444.00
2019-02-07T08:02:57.011Z,504.00
2019-02-07T08:03:57.007Z,608.00
2019-02-07T08:04:56.967Z,708.00
2019-02-07T08:05:56.958Z,780.00
2019-02-07T08:06:56.931Z,700.00
2019-02-07T08:07:56.919Z,612.00
2019-02-07T08:08:56.904Z,612.00
2019-02-07T08:09:56.864Z,560.00
2019-02-07T08:10:56.872Z,628.00
2019-02-07T08:11:56.833Z,520.00
2019-02-07T08:12:56.801Z,644.00
2019-02-07T08:13:56.786Z,488.00
2019-02-07T08:14:56.760Z,472.00
2019-02-07T08:15:56.733Z,400.00
2019-02-07T08:16:59.113Z,488.00
2019-02-07T08:17:56.699Z,604.00
2019-02-07T08:18:56.681Z,588.00
2019-02-07T08:19:56.656Z,544.00
2019-02-07T08:20:56.645Z,436.00
2019-02-07T08:21:56.631Z,584.00
2019-02-07T08:22:56.592Z,728.00
2019-02-07T08:23:56.594Z,572.00
2019-02-07T08:24:56.554Z,444.00
2019-02-07T08:25:56.556Z,372.00
2019-02-07T08:26:56.529Z,348.00
2019-02-07T08:27:56.489Z,756.00
2019-02-07T08:28:56.472Z,1352.00
2019-02-07T08:29:56.452Z,1096.00
2019-02-07T08:32:38.667Z,1716.00
2019-02-07T08:33:39.241Z,2012.00
2019-02-07T08:34:38.638Z,1056.00
2019-02-07T08:35:38.870Z,1256.00
2019-02-07T08:36:38.566Z,1512.00
2019-02-07T08:37:38.568Z,1492.00
2019-02-07T08:38:38.527Z,1296.00
2019-02-07T08:39:38.503Z,920.00
2019-02-07T08:40:38.517Z,996.00
2019-02-07T08:41:38.472Z,1204.00
2019-02-07T08:42:38.450Z,1120.00
2019-02-07T08:43:38.433Z,1188.00
2019-02-07T08:44:38.402Z,1348.00
2019-02-07T08:45:38.394Z,1732.00
2019-02-07T08:46:38.380Z,1944.00
2019-02-07T08:47:38.375Z,1952.00
2019-02-07T08:48:38.345Z,2192.00
2019-02-07T08:49:38.309Z,2816.00
2019-02-07T08:50:38.287Z,3296.00
2019-02-07T08:51:38.293Z,3436.00
2019-02-07T08:52:38.239Z,3400.00
2019-02-07T08:53:38.223Z,2984.00
2019-02-07T08:54:38.203Z,2644.00
2019-02-07T08:55:38.192Z,2656.00
2019-02-07T08:56:38.168Z,2392.00
2019-02-07T08:57:38.171Z,2504.00
2019-02-07T08:58:38.124Z,2744.00
2019-02-07T08:59:38.102Z,2984.00
2019-02-07T09:00:38.085Z,3188.00
2019-02-07T09:01:38.116Z,3032.00
2019-02-07T09:02:38.045Z,2644.00
2019-02-07T09:03:38.041Z,2388.00
2019-02-07T09:04:38.004Z,2456.00
2019-02-07T09:05:37.986Z,2492.00
2019-02-07T09:06:37.966Z,2832.00
2019-02-07T09:07:37.958Z,2356.00
2019-02-07T09:08:37.940Z,2748.00
2019-02-07T09:09:37.916Z,2772.00
2019-02-07T09:10:37.881Z,2188.00
2019-02-07T09:11:37.865Z,2200.00
2019-02-07T09:12:37.859Z,2708.00
2019-02-07T09:13:37.823Z,2480.00
2019-02-07T09:14:37.831Z,2568.00
2019-02-07T09:15:37.788Z,2724.00
2019-02-07T09:16:37.768Z,2828.00
2019-02-07T09:17:37.760Z,2732.00
2019-02-07T09:18:37.733Z,2880.00
2019-02-07T09:19:37.709Z,2608.00
2019-02-07T09:20:37.710Z,2416.00
2019-02-07T09:21:37.686Z,2172.00
2019-02-07T09:22:37.652Z,2132.00
2019-02-07T09:23:37.628Z,2184.00
2019-02-07T09:24:37.608Z,2264.00
2019-02-07T09:25:37.592Z,2460.00
2019-02-07T09:26:37.589Z,2836.00
2019-02-07T09:27:37.552Z,2736.00
2019-02-07T09:28:37.534Z,2680.00
2019-02-07T09:29:37.514Z,2540.00
2019-02-07T09:30:37.495Z,2564.00
2019-02-07T09:31:37.472Z,2308.00
2019-02-07T09:32:37.474Z,2192.00
2019-02-07T09:33:37.432Z,2144.00
2019-02-07T09:34:37.418Z,1848.00
2019-02-07T09:35:37.396Z,1796.00
2019-02-07T09:36:37.379Z,2232.00
2019-02-07T09:37:37.358Z,2404.00
2019-02-07T09:38:37.346Z,2192.00
2019-02-07T09:39:37.317Z,2296.00
2019-02-07T09:40:37.295Z,2428.00
2019-02-07T09:41:37.276Z,2020.00
2019-02-07T09:42:37.271Z,2144.00
2019-02-07T09:43:37.254Z,2100.00
2019-02-07T09:44:37.219Z,2444.00
2019-02-07T09:45:37.193Z,1888.00
2019-02-07T09:46:37.173Z,1752.00
2019-02-07T09:47:37.158Z,1908.00
2019-02-07T09:48:37.138Z,2004.00
2019-02-07T09:49:37.134Z,2276.00
2019-02-07T09:50:37.093Z,2156.00
2019-02-07T09:51:37.080Z,2256.00
2019-02-07T09:52:37.058Z,2384.00
2019-02-07T09:53:37.036Z,2324.00
2019-02-07T09:54:37.034Z,2412.00
2019-02-07T09:55:36.998Z,2860.00
2019-02-07T09:56:36.980Z,3468.00
2019-02-07T09:57:36.957Z,3520.00
2019-02-07T09:58:36.938Z,4136.00
2019-02-07T09:59:36.920Z,4536.00
2019-02-07T10:00:36.919Z,4792.00
2019-02-07T10:01:36.880Z,4892.00
2019-02-07T10:02:36.861Z,4932.00
2019-02-07T10:03:36.834Z,4768.00
2019-02-07T10:04:36.817Z,4944.00
2019-02-07T10:05:36.800Z,4876.00
2019-02-07T10:06:36.795Z,4812.00
2019-02-07T10:07:36.766Z,5232.00
2019-02-07T10:08:36.742Z,5260.00
2019-02-07T10:09:36.725Z,4872.00
2019-02-07T10:10:36.706Z,4544.00
2019-02-07T10:11:36.709Z,4916.00
2019-02-07T10:12:36.665Z,4852.00
2019-02-07T10:13:36.643Z,5332.00
2019-02-07T10:14:36.623Z,5808.00
2019-02-07T10:15:36.607Z,5992.00
2019-02-07T10:16:36.593Z,5912.00
2019-02-07T10:17:36.585Z,5820.00
2019-02-07T10:18:36.547Z,5628.00
2019-02-07T10:19:36.531Z,5532.00
2019-02-07T10:20:37.426Z,5912.00
2019-02-07T10:21:36.497Z,6068.00
2019-02-07T10:22:36.475Z,6172.00
2019-02-07T10:23:36.483Z,6168.00
2019-02-07T10:24:36.437Z,6108.00
2019-02-07T10:25:36.424Z,6000.00
2019-02-07T10:26:36.419Z,6384.00
2019-02-07T10:27:36.385Z,6432.00
2019-02-07T10:28:36.372Z,6620.00
2019-02-07T10:29:36.372Z,5744.00
2019-02-07T10:30:36.320Z,5096.00
2019-02-07T10:31:36.305Z,5368.00
2019-02-07T10:32:36.290Z,6160.00
2019-02-07T10:33:36.269Z,6436.00
2019-02-07T10:34:36.257Z,6376.00
2019-02-07T10:35:36.244Z,5840.00
2019-02-07T10:36:36.230Z,5032.00
2019-02-07T10:37:36.194Z,4564.00
2019-02-07T10:38:36.174Z,4704.00
2019-02-07T10:39:36.159Z,4600.00
2019-02-07T10:40:36.139Z,4768.00
2019-02-07T10:41:36.144Z,4792.00
2019-02-07T10:42:36.104Z,4688.00
2019-02-07T10:43:36.083Z,5200.00
2019-02-07T10:44:36.077Z,5816.00
2019-02-07T10:45:36.061Z,5832.00
2019-02-07T10:46:36.046Z,6240.00
2019-02-07T10:47:36.020Z,6564.00
2019-02-07T10:48:44.168Z,6076.00
2019-02-07T10:49:35.969Z,4988.00
2019-02-07T10:50:35.954Z,4476.00
2019-02-07T10:51:35.958Z,4828.00
2019-02-07T10:52:35.937Z,6028.00
2019-02-07T10:53:35.895Z,6172.00
2019-02-07T10:54:35.882Z,6288.00
2019-02-07T10:55:35.862Z,6392.00
2019-02-07T10:56:35.844Z,6744.00
2019-02-07T10:57:35.823Z,7608.00
2019-02-07T10:58:35.819Z,6288.00
2019-02-07T10:59:35.811Z,5580.00
2019-02-07T11:00:35.767Z,7140.00
2019-02-07T11:01:35.752Z,6300.00
2019-02-07T11:02:35.733Z,5160.00
2019-02-07T11:03:35.755Z,5712.00
2019-02-07T11:04:35.693Z,7120.00
2019-02-07T11:05:35.738Z,6260.00
2019-02-07T11:06:35.746Z,6860.00
2019-02-07T11:07:35.749Z,5344.00
2019-02-07T11:08:35.788Z,5352.00
2019-02-07T11:09:35.691Z,5964.00
2019-02-07T11:10:35.763Z,5776.00
2019-02-07T11:11:35.728Z,8192.00
2019-02-07T11:12:35.734Z,7244.00
2019-02-07T11:13:35.547Z,5700.00
2019-02-07T11:14:35.515Z,5932.00
2019-02-07T11:15:35.523Z,5164.00
2019-02-07T11:16:35.482Z,5192.00
2019-02-07T11:17:35.462Z,5464.00
2019-02-07T11:18:35.438Z,5980.00
2019-02-07T11:19:35.427Z,5636.00
2019-02-07T11:20:35.408Z,5960.00
2019-02-07T11:21:35.427Z,6584.00
2019-02-07T11:22:35.382Z,7140.00
2019-02-07T11:23:35.355Z,7384.00
2019-02-07T11:24:35.340Z,6188.00
2019-02-07T11:25:35.315Z,5964.00
2019-02-07T11:26:35.354Z,6760.00
2019-02-07T11:27:35.285Z,6400.00
2019-02-07T11:28:35.268Z,4996.00
2019-02-07T11:29:35.251Z,5424.00
2019-02-07T11:30:35.234Z,6016.00
2019-02-07T11:31:35.248Z,5844.00
2019-02-07T11:32:35.198Z,6064.00
2019-02-07T11:33:35.182Z,5668.00
2019-02-07T11:34:35.164Z,5004.00
2019-02-07T11:35:35.145Z,5436.00
2019-02-07T11:36:35.128Z,6168.00
2019-02-07T11:37:35.134Z,6920.00
2019-02-07T11:38:35.139Z,7124.00
2019-02-07T11:39:35.078Z,5928.00
2019-02-07T11:40:35.720Z,9624.00
2019-02-07T11:41:35.043Z,11452.00
2019-02-07T11:42:35.034Z,10120.00
2019-02-07T11:43:35.023Z,11128.00
2019-02-07T11:44:34.990Z,8112.00
2019-02-07T11:45:34.977Z,8012.00
2019-02-07T11:46:37.631Z,10004.00
2019-02-07T11:47:34.961Z,9808.00
2019-02-07T11:48:34.940Z,8232.00
2019-02-07T11:49:34.906Z,4328.00
2019-02-07T11:50:34.886Z,7580.00
2019-02-07T11:51:34.880Z,9484.00
2019-02-07T11:52:34.869Z,10784.00
2019-02-07T11:53:34.840Z,11116.00
2019-02-07T11:54:34.826Z,9536.00
2019-02-07T11:55:34.800Z,5120.00
2019-02-07T11:56:34.796Z,10092.00
2019-02-07T11:57:34.769Z,4180.00
2019-02-07T11:58:34.781Z,3756.00
2019-02-07T11:59:34.739Z,5908.00
2019-02-07T12:00:34.723Z,6136.00
2019-02-07T12:01:34.706Z,9792.00
2019-02-07T12:02:34.697Z,9116.00
2019-02-07T12:03:34.670Z,10712.00
2019-02-07T12:04:34.682Z,9728.00
2019-02-07T12:05:34.635Z,12712.00
2019-02-07T12:06:34.623Z,9756.00
2019-02-07T12:07:34.607Z,10644.00
2019-02-07T12:08:34.590Z,7108.00
2019-02-07T12:09:34.588Z,10076.00
2019-02-07T12:10:34.561Z,9520.00
2019-02-07T12:11:34.534Z,5128.00
2019-02-07T12:12:34.520Z,7704.00
2019-02-07T12:13:34.506Z,8816.00
2019-02-07T12:14:34.510Z,8000.00
2019-02-07T12:15:34.473Z,7488.00
2019-02-07T12:16:34.459Z,3620.00
2019-02-07T12:17:34.439Z,6544.00
2019-02-07T12:18:34.435Z,4712.00
2019-02-07T12:19:34.410Z,3744.00
2019-02-07T12:20:34.419Z,8580.00
2019-02-07T12:21:34.388Z,8576.00
2019-02-07T12:22:34.362Z,8068.00
2019-02-07T12:23:34.345Z,3836.00
2019-02-07T12:24:34.323Z,3548.00
2019-02-07T12:25:34.309Z,3692.00
2019-02-07T12:26:34.310Z,4280.00
2019-02-07T12:27:34.277Z,6128.00
2019-02-07T12:28:36.167Z,7992.00
2019-02-07T12:29:34.244Z,7092.00
2019-02-07T12:30:34.228Z,4688.00
2019-02-07T12:31:34.255Z,5952.00
2019-02-07T12:32:34.202Z,13056.00
2019-02-07T12:33:34.180Z,6896.00
2019-02-07T12:34:34.164Z,10468.00
2019-02-07T12:35:34.142Z,6204.00
2019-02-07T12:36:34.127Z,9068.00
2019-02-07T12:37:34.142Z,4192.00
2019-02-07T12:38:34.084Z,4240.00
2019-02-07T12:39:34.079Z,8948.00
2019-02-07T12:40:34.057Z,4884.00
2019-02-07T12:41:34.041Z,6608.00
2019-02-07T12:42:34.025Z,5196.00
2019-02-07T12:43:34.028Z,6216.00
2019-02-07T12:44:34.019Z,7124.00
2019-02-07T12:45:33.995Z,5600.00
2019-02-07T12:46:33.956Z,5016.00
2019-02-07T12:47:33.969Z,4948.00
2019-02-07T12:48:33.960Z,5148.00
2019-02-07T12:49:33.907Z,5548.00
2019-02-07T12:50:33.899Z,6012.00
2019-02-07T12:51:33.872Z,11644.00